createdAt,value
2023-08-17T00:08:06.056Z,0.3
2023-08-17T00:20:06.217Z,0.3
2023-08-17T00:32:06.160Z,0.4
2023-08-17T00:44:06.063Z,0.4
2023-08-17T00:56:06.321Z,0.4
2023-08-17T01:08:06.221Z,0.6
2023-08-17T01:20:06.270Z,0.6
2023-08-17T01:32:06.145Z,0.7
2023-08-17T01:44:06.110Z,0.7
2023-08-17T01:56:06.272Z,0.7
2023-08-17T02:08:06.229Z,0.8
2023-08-17T02:20:06.148Z,0.8
2023-08-17T02:32:06.381Z,1
2023-08-17T02:44:06.330Z,1
2023-08-17T02:56:06.269Z,1
2023-08-17T03:08:06.206Z,1.1
2023-08-17T03:20:06.433Z,1.1
2023-08-17T03:32:06.358Z,1.2
2023-08-17T03:44:06.316Z,1.2
2023-08-17T03:56:06.259Z,1.2
2023-08-17T04:08:06.420Z,1.4
2023-08-17T04:20:06.436Z,1.4
2023-08-17T04:32:06.372Z,1.5
2023-08-17T04:44:06.329Z,1.5
2023-08-17T04:56:06.509Z,1.5
2023-08-17T05:08:06.465Z,1.6
2023-08-17T05:20:06.392Z,1.6
2023-08-17T05:32:06.348Z,1.8
2023-08-17T05:44:06.524Z,1.8
2023-08-17T05:56:06.443Z,1.8
2023-08-17T06:08:06.414Z,1.9
2023-08-17T06:20:06.558Z,1.9
2023-08-17T06:32:06.604Z,2
2023-08-17T06:44:06.470Z,2
2023-08-17T06:56:06.466Z,2
2023-08-17T07:08:06.602Z,2.1
2023-08-17T07:20:15.377Z,2.1
2023-08-17T07:32:06.572Z,2.2
2023-08-17T07:44:06.549Z,2.2
2023-08-17T07:56:06.649Z,2.2
2023-08-17T08:08:06.614Z,2.4
2023-08-17T08:20:06.563Z,2.4
2023-08-17T08:32:06.580Z,2.5
2023-08-17T08:44:06.919Z,2.5
2023-08-17T08:56:06.728Z,2.5
2023-08-17T09:08:06.720Z,2.6
2023-08-17T09:20:06.683Z,2.6
2023-08-17T09:32:06.723Z,2.8
2023-08-17T09:44:06.759Z,2.8
2023-08-17T09:56:06.730Z,2.8
2023-08-17T10:08:06.826Z,2.9
2023-08-17T10:20:06.678Z,2.9
2023-08-17T10:32:06.836Z,3
2023-08-17T10:44:06.801Z,3
2023-08-17T10:56:06.714Z,3
2023-08-17T11:08:06.855Z,3.2
2023-08-17T11:20:06.852Z,3.2
2023-08-17T11:32:06.979Z,3.3
2023-08-17T11:44:06.810Z,3.3
2023-08-17T11:56:09.206Z,3.3
2023-08-17T12:08:06.893Z,3.4
2023-08-17T12:20:06.788Z,3.4
2023-08-17T12:32:06.917Z,3.6
2023-08-17T12:44:06.904Z,3.6
2023-08-17T12:56:06.877Z,3.6
2023-08-17T13:08:06.888Z,3.7
2023-08-17T13:20:07.001Z,3.7
2023-08-17T13:32:07.122Z,3.8
2023-08-17T13:44:06.909Z,3.8
2023-08-17T13:56:06.837Z,3.8
2023-08-17T14:08:07.057Z,3.9
2023-08-17T14:20:06.962Z,3.9
2023-08-17T14:32:07.011Z,4
2023-08-17T14:44:06.867Z,4
2023-08-17T14:56:07.098Z,4
2023-08-17T15:08:07.010Z,4.2
2023-08-17T15:20:07.026Z,4.2
2023-08-17T15:32:06.991Z,4.4
2023-08-17T15:44:07.147Z,4.4
2023-08-17T15:56:07.146Z,4.4
2023-08-17T16:08:07.084Z,4.5
2023-08-17T16:20:08.572Z,4.5
2023-08-17T16:32:09.989Z,4.6
2023-08-17T16:44:07.097Z,4.6
2023-08-17T16:56:07.078Z,4.6
2023-08-17T17:08:07.259Z,4.8
2023-08-17T17:20:07.198Z,4.8
2023-08-17T17:32:07.156Z,4.9
2023-08-17T17:44:07.112Z,4.9
2023-08-17T17:56:07.240Z,4.9
2023-08-17T18:08:07.216Z,5
2023-08-17T18:20:07.159Z,5
2023-08-17T18:32:07.170Z,5.1
2023-08-17T18:44:07.278Z,5.1
2023-08-17T18:56:07.261Z,5.1
2023-08-17T19:08:07.200Z,5.3
2023-08-17T19:20:07.180Z,5.3
2023-08-17T19:32:07.331Z,5.4
2023-08-17T19:44:07.321Z,5.4
2023-08-17T19:56:07.220Z,5.4
2023-08-17T20:08:07.413Z,5.6
2023-08-17T20:20:07.521Z,5.6
2023-08-17T20:32:07.349Z,5.7
2023-08-17T20:44:07.548Z,5.7
2023-08-17T20:56:07.513Z,5.7
2023-08-17T21:08:07.490Z,5.9
2023-08-17T21:20:07.459Z,5.9
2023-08-17T21:32:07.516Z,6.1
2023-08-17T21:44:07.519Z,6.1
2023-08-17T21:56:07.401Z,6.1
2023-08-17T22:08:07.387Z,6.2
2023-08-17T22:20:07.599Z,6.2
2023-08-17T22:32:07.639Z,6.4
2023-08-17T22:44:07.440Z,6.4
2023-08-17T22:56:07.658Z,6.4
2023-08-17T23:08:07.481Z,0
2023-08-17T23:20:07.455Z,0
2023-08-17T23:32:16.720Z,0.1
2023-08-17T23:44:07.529Z,0.1
2023-08-17T23:56:07.471Z,0.1
